sensor_id;sensor_type;location;lat;lon;timestamp;noise_LAeq;noise_LA_min;noise_LA_max;noise_LA01;noise_LA95
72858;Laerm;62742;52.136;4.500;2022-08-24T00:01:21;49.64;45.21;54.55;;
72858;Laerm;62742;52.136;4.500;2022-08-24T00:03:48;49.00;44.94;54.34;;
72858;Laerm;62742;52.136;4.500;2022-08-24T00:06:20;49.57;45.92;57.10;;
72858;Laerm;62742;52.136;4.500;2022-08-24T00:08:49;49.30;45.71;54.86;;
72858;Laerm;62742;52.136;4.500;2022-08-24T00:11:17;49.25;45.41;54.80;;
72858;Laerm;62742;52.136;4.500;2022-08-24T00:13:44;49.72;45.34;55.49;;
72858;Laerm;62742;52.136;4.500;2022-08-24T00:16:13;49.63;45.42;54.34;;
72858;Laerm;62742;52.136;4.500;2022-08-24T00:18:41;49.73;46.33;54.57;;
72858;Laerm;62742;52.136;4.500;2022-08-24T00:21:10;49.62;46.51;54.75;;
72858;Laerm;62742;52.136;4.500;2022-08-24T00:23:38;49.77;45.34;54.84;;
72858;Laerm;62742;52.136;4.500;2022-08-24T00:26:06;49.54;45.79;54.28;;
72858;Laerm;62742;52.136;4.500;2022-08-24T00:28:34;49.85;46.13;54.62;;
72858;Laerm;62742;52.136;4.500;2022-08-24T00:31:00;49.32;45.70;54.25;;
72858;Laerm;62742;52.136;4.500;2022-08-24T00:33:27;49.05;45.53;53.93;;
72858;Laerm;62742;52.136;4.500;2022-08-24T00:35:54;50.24;46.02;56.24;;
72858;Laerm;62742;52.136;4.500;2022-08-24T00:38:21;48.48;44.93;53.98;;
72858;Laerm;62742;52.136;4.500;2022-08-24T00:40:49;49.32;44.97;54.49;;
72858;Laerm;62742;52.136;4.500;2022-08-24T00:43:22;49.25;45.81;54.31;;
72858;Laerm;62742;52.136;4.500;2022-08-24T00:48:24;49.79;46.41;54.20;;
72858;Laerm;62742;52.136;4.500;2022-08-24T00:51:23;49.32;45.95;55.34;;
72858;Laerm;62742;52.136;4.500;2022-08-24T00:53:58;49.60;46.23;55.28;;
72858;Laerm;62742;52.136;4.500;2022-08-24T00:56:35;50.29;46.81;55.96;;
72858;Laerm;62742;52.136;4.500;2022-08-24T00:59:41;50.42;45.93;56.99;;
72858;Laerm;62742;52.136;4.500;2022-08-24T01:02:22;49.90;46.27;54.89;;
72858;Laerm;62742;52.136;4.500;2022-08-24T01:04:57;49.05;45.98;54.77;;
72858;Laerm;62742;52.136;4.500;2022-08-24T01:07:28;49.71;46.53;54.35;;
72858;Laerm;62742;52.136;4.500;2022-08-24T01:09:59;49.57;46.42;54.10;;
72858;Laerm;62742;52.136;4.500;2022-08-24T01:12:31;49.43;45.71;54.72;;
72858;Laerm;62742;52.136;4.500;2022-08-24T01:15:02;49.90;45.96;54.37;;
72858;Laerm;62742;52.136;4.500;2022-08-24T01:17:30;49.40;43.85;53.86;;
72858;Laerm;62742;52.136;4.500;2022-08-24T01:20:17;49.64;46.13;54.82;;
72858;Laerm;62742;52.136;4.500;2022-08-24T01:23:25;50.01;44.27;54.58;;
72858;Laerm;62742;52.136;4.500;2022-08-24T01:25:53;49.86;46.66;54.34;;
72858;Laerm;62742;52.136;4.500;2022-08-24T01:28:20;49.72;45.35;55.17;;
72858;Laerm;62742;52.136;4.500;2022-08-24T01:30:47;49.60;45.06;53.31;;
72858;Laerm;62742;52.136;4.500;2022-08-24T01:33:30;49.36;45.13;53.34;;
72858;Laerm;62742;52.136;4.500;2022-08-24T01:36:17;49.57;45.67;54.24;;
72858;Laerm;62742;52.136;4.500;2022-08-24T01:38:46;50.01;47.38;54.18;;
72858;Laerm;62742;52.136;4.500;2022-08-24T01:41:13;49.91;46.32;55.34;;
72858;Laerm;62742;52.136;4.500;2022-08-24T01:43:40;49.98;46.58;54.44;;
72858;Laerm;62742;52.136;4.500;2022-08-24T01:46:07;50.12;47.07;54.19;;
72858;Laerm;62742;52.136;4.500;2022-08-24T01:48:34;49.87;46.94;54.98;;
72858;Laerm;62742;52.136;4.500;2022-08-24T01:51:00;50.35;46.84;55.49;;
72858;Laerm;62742;52.136;4.500;2022-08-24T01:53:27;50.71;47.09;55.14;;
72858;Laerm;62742;52.136;4.500;2022-08-24T01:55:53;50.58;47.07;56.11;;
72858;Laerm;62742;52.136;4.500;2022-08-24T01:58:20;49.81;46.04;53.89;;
72858;Laerm;62742;52.136;4.500;2022-08-24T02:00:47;49.68;46.59;52.94;;
72858;Laerm;62742;52.136;4.500;2022-08-24T02:03:14;50.37;47.18;53.39;;
72858;Laerm;62742;52.136;4.500;2022-08-24T02:05:40;50.16;45.90;55.75;;
72858;Laerm;62742;52.136;4.500;2022-08-24T02:08:07;51.01;47.59;56.13;;
72858;Laerm;62742;52.136;4.500;2022-08-24T02:10:34;50.11;47.36;54.10;;
72858;Laerm;62742;52.136;4.500;2022-08-24T02:13:02;50.01;46.68;54.49;;
72858;Laerm;62742;52.136;4.500;2022-08-24T02:15:37;49.32;44.43;55.81;;
72858;Laerm;62742;52.136;4.500;2022-08-24T02:18:08;49.93;46.28;55.26;;
72858;Laerm;62742;52.136;4.500;2022-08-24T02:20:36;49.50;45.78;54.98;;
72858;Laerm;62742;52.136;4.500;2022-08-24T02:23:04;49.24;45.73;53.92;;
72858;Laerm;62742;52.136;4.500;2022-08-24T02:25:32;49.23;45.38;53.45;;
72858;Laerm;62742;52.136;4.500;2022-08-24T02:28:00;49.48;44.81;52.85;;
72858;Laerm;62742;52.136;4.500;2022-08-24T02:30:28;49.96;44.23;53.93;;
72858;Laerm;62742;52.136;4.500;2022-08-24T02:32:56;49.90;45.79;54.78;;
72858;Laerm;62742;52.136;4.500;2022-08-24T02:35:24;50.11;46.12;54.38;;
72858;Laerm;62742;52.136;4.500;2022-08-24T02:37:52;49.29;45.79;53.48;;
72858;Laerm;62742;52.136;4.500;2022-08-24T02:40:18;50.41;45.74;54.56;;
72858;Laerm;62742;52.136;4.500;2022-08-24T02:42:45;49.41;45.92;53.70;;
72858;Laerm;62742;52.136;4.500;2022-08-24T02:45:11;49.57;46.31;54.35;;
72858;Laerm;62742;52.136;4.500;2022-08-24T02:47:38;50.40;45.63;55.53;;
72858;Laerm;62742;52.136;4.500;2022-08-24T02:50:11;50.50;47.16;55.36;;
72858;Laerm;62742;52.136;4.500;2022-08-24T02:52:41;49.82;46.71;54.14;;
72858;Laerm;62742;52.136;4.500;2022-08-24T02:55:16;49.63;45.27;54.59;;
72858;Laerm;62742;52.136;4.500;2022-08-24T02:57:43;49.84;45.71;53.45;;
72858;Laerm;62742;52.136;4.500;2022-08-24T03:00:15;49.48;45.39;54.37;;
72858;Laerm;62742;52.136;4.500;2022-08-24T03:02:42;50.21;45.72;54.41;;
72858;Laerm;62742;52.136;4.500;2022-08-24T03:05:09;50.52;47.33;55.55;;
72858;Laerm;62742;52.136;4.500;2022-08-24T03:07:36;50.11;46.44;54.42;;
72858;Laerm;62742;52.136;4.500;2022-08-24T03:10:05;49.82;46.27;54.46;;
72858;Laerm;62742;52.136;4.500;2022-08-24T03:12:33;49.82;46.55;55.80;;
72858;Laerm;62742;52.136;4.500;2022-08-24T03:15:06;50.40;46.89;54.66;;
72858;Laerm;62742;52.136;4.500;2022-08-24T03:17:37;49.62;45.31;55.40;;
72858;Laerm;62742;52.136;4.500;2022-08-24T03:20:08;49.47;45.03;52.74;;
72858;Laerm;62742;52.136;4.500;2022-08-24T03:22:37;50.23;46.52;54.22;;
72858;Laerm;62742;52.136;4.500;2022-08-24T03:25:05;50.04;45.86;55.25;;
72858;Laerm;62742;52.136;4.500;2022-08-24T03:27:35;49.15;44.82;54.99;;
72858;Laerm;62742;52.136;4.500;2022-08-24T03:30:05;49.45;45.59;55.12;;
72858;Laerm;62742;52.136;4.500;2022-08-24T03:32:33;51.03;46.82;55.67;;
72858;Laerm;62742;52.136;4.500;2022-08-24T03:35:00;49.46;45.51;54.81;;
72858;Laerm;62742;52.136;4.500;2022-08-24T03:37:27;49.67;45.84;54.51;;
72858;Laerm;62742;52.136;4.500;2022-08-24T03:39:54;50.01;47.06;55.27;;
72858;Laerm;62742;52.136;4.500;2022-08-24T03:42:20;51.11;48.49;56.62;;
72858;Laerm;62742;52.136;4.500;2022-08-24T03:44:47;50.01;46.12;56.02;;
72858;Laerm;62742;52.136;4.500;2022-08-24T03:47:13;49.92;44.28;57.15;;
72858;Laerm;62742;52.136;4.500;2022-08-24T03:49:40;49.53;44.19;56.21;;
72858;Laerm;62742;52.136;4.500;2022-08-24T03:52:07;49.27;42.78;55.53;;
72858;Laerm;62742;52.136;4.500;2022-08-24T03:54:33;48.99;43.04;55.46;;
72858;Laerm;62742;52.136;4.500;2022-08-24T03:57:00;47.37;42.72;54.82;;
72858;Laerm;62742;52.136;4.500;2022-08-24T03:59:27;49.36;43.75;54.87;;
72858;Laerm;62742;52.136;4.500;2022-08-24T04:01:53;49.22;44.87;55.54;;
72858;Laerm;62742;52.136;4.500;2022-08-24T04:04:23;48.95;43.65;56.11;;
72858;Laerm;62742;52.136;4.500;2022-08-24T04:06:50;49.31;46.64;54.72;;
72858;Laerm;62742;52.136;4.500;2022-08-24T04:09:17;49.16;46.08;55.25;;
72858;Laerm;62742;52.136;4.500;2022-08-24T04:11:44;49.36;46.47;56.64;;
72858;Laerm;62742;52.136;4.500;2022-08-24T04:14:13;50.06;45.55;56.93;;
72858;Laerm;62742;52.136;4.500;2022-08-24T04:16:40;49.65;46.35;55.76;;
72858;Laerm;62742;52.136;4.500;2022-08-24T04:19:07;48.38;45.41;54.29;;
72858;Laerm;62742;52.136;4.500;2022-08-24T04:21:35;48.86;42.91;56.29;;
72858;Laerm;62742;52.136;4.500;2022-08-24T04:24:05;49.26;43.72;56.32;;
72858;Laerm;62742;52.136;4.500;2022-08-24T04:26:32;48.09;41.02;55.99;;
72858;Laerm;62742;52.136;4.500;2022-08-24T04:28:59;48.50;41.51;55.91;;
72858;Laerm;62742;52.136;4.500;2022-08-24T04:31:25;47.01;40.21;55.01;;
72858;Laerm;62742;52.136;4.500;2022-08-24T04:33:53;47.12;41.34;56.42;;
72858;Laerm;62742;52.136;4.500;2022-08-24T04:36:21;46.54;40.45;54.30;;
72858;Laerm;62742;52.136;4.500;2022-08-24T04:38:48;47.20;41.18;54.79;;
72858;Laerm;62742;52.136;4.500;2022-08-24T04:41:17;46.56;41.79;53.81;;
72858;Laerm;62742;52.136;4.500;2022-08-24T04:43:48;47.23;41.24;55.56;;
72858;Laerm;62742;52.136;4.500;2022-08-24T04:46:18;46.81;39.97;55.21;;
72858;Laerm;62742;52.136;4.500;2022-08-24T04:48:48;48.22;42.28;56.20;;
72858;Laerm;62742;52.136;4.500;2022-08-24T04:51:18;46.40;41.89;53.92;;
72858;Laerm;62742;52.136;4.500;2022-08-24T04:53:46;47.36;42.79;56.15;;
72858;Laerm;62742;52.136;4.500;2022-08-24T04:56:23;48.14;43.30;54.61;;
72858;Laerm;62742;52.136;4.500;2022-08-24T04:58:54;46.16;40.70;53.92;;
72858;Laerm;62742;52.136;4.500;2022-08-24T05:01:29;46.35;39.40;55.12;;
72858;Laerm;62742;52.136;4.500;2022-08-24T05:03:58;46.04;40.56;55.86;;
72858;Laerm;62742;52.136;4.500;2022-08-24T05:06:30;46.87;40.39;54.23;;
72858;Laerm;62742;52.136;4.500;2022-08-24T05:08:58;47.44;40.16;54.69;;
72858;Laerm;62742;52.136;4.500;2022-08-24T05:11:26;45.68;40.02;53.43;;
72858;Laerm;62742;52.136;4.500;2022-08-24T05:13:55;48.61;41.21;56.07;;
72858;Laerm;62742;52.136;4.500;2022-08-24T05:16:25;46.18;40.63;56.74;;
72858;Laerm;62742;52.136;4.500;2022-08-24T05:18:52;50.40;40.58;57.95;;
72858;Laerm;62742;52.136;4.500;2022-08-24T05:21:22;48.01;40.68;56.13;;
72858;Laerm;62742;52.136;4.500;2022-08-24T05:23:49;47.62;40.13;56.50;;
72858;Laerm;62742;52.136;4.500;2022-08-24T05:26:22;46.10;39.63;55.39;;
72858;Laerm;62742;52.136;4.500;2022-08-24T05:28:59;45.16;39.20;54.04;;
72858;Laerm;62742;52.136;4.500;2022-08-24T05:31:30;44.80;38.52;56.57;;
72858;Laerm;62742;52.136;4.500;2022-08-24T05:33:59;44.46;39.96;52.82;;
72858;Laerm;62742;52.136;4.500;2022-08-24T05:36:32;46.98;40.09;53.61;;
72858;Laerm;62742;52.136;4.500;2022-08-24T05:39:02;47.77;39.32;54.60;;
72858;Laerm;62742;52.136;4.500;2022-08-24T05:41:30;45.77;38.73;54.65;;
72858;Laerm;62742;52.136;4.500;2022-08-24T05:43:56;48.23;40.56;56.23;;
72858;Laerm;62742;52.136;4.500;2022-08-24T05:46:23;46.84;41.15;54.88;;
72858;Laerm;62742;52.136;4.500;2022-08-24T05:48:49;47.34;42.43;54.86;;
72858;Laerm;62742;52.136;4.500;2022-08-24T05:51:16;47.44;41.81;55.84;;
72858;Laerm;62742;52.136;4.500;2022-08-24T05:53:43;48.11;42.14;55.49;;
72858;Laerm;62742;52.136;4.500;2022-08-24T05:56:13;47.18;42.18;55.02;;
72858;Laerm;62742;52.136;4.500;2022-08-24T05:58:40;47.30;42.74;55.03;;
72858;Laerm;62742;52.136;4.500;2022-08-24T06:01:15;47.35;42.35;54.70;;
72858;Laerm;62742;52.136;4.500;2022-08-24T06:03:42;48.10;41.67;56.01;;
72858;Laerm;62742;52.136;4.500;2022-08-24T06:06:10;47.99;42.87;55.05;;
72858;Laerm;62742;52.136;4.500;2022-08-24T06:08:39;47.95;42.94;54.55;;
72858;Laerm;62742;52.136;4.500;2022-08-24T06:11:07;45.66;42.05;52.36;;
72858;Laerm;62742;52.136;4.500;2022-08-24T06:13:34;48.37;41.65;54.17;;
72858;Laerm;62742;52.136;4.500;2022-08-24T06:16:11;46.06;40.71;55.07;;
72858;Laerm;62742;52.136;4.500;2022-08-24T06:18:39;45.53;40.10;51.05;;
72858;Laerm;62742;52.136;4.500;2022-08-24T06:21:10;45.39;40.13;52.03;;
72858;Laerm;62742;52.136;4.500;2022-08-24T06:23:38;44.43;40.84;48.21;;
72858;Laerm;62742;52.136;4.500;2022-08-24T06:26:07;45.57;40.96;50.96;;
72858;Laerm;62742;52.136;4.500;2022-08-24T06:28:52;47.07;42.02;51.63;;
72858;Laerm;62742;52.136;4.500;2022-08-24T06:31:20;49.61;43.41;54.43;;
72858;Laerm;62742;52.136;4.500;2022-08-24T06:33:47;48.45;44.33;53.52;;
72858;Laerm;62742;52.136;4.500;2022-08-24T06:36:14;49.30;44.84;55.18;;
72858;Laerm;62742;52.136;4.500;2022-08-24T06:38:40;49.92;45.18;55.32;;
72858;Laerm;62742;52.136;4.500;2022-08-24T06:41:07;49.91;45.42;54.48;;
72858;Laerm;62742;52.136;4.500;2022-08-24T06:43:35;50.83;45.49;56.04;;
72858;Laerm;62742;52.136;4.500;2022-08-24T06:46:03;49.78;45.75;54.65;;
72858;Laerm;62742;52.136;4.500;2022-08-24T06:48:30;48.98;45.79;54.72;;
72858;Laerm;62742;52.136;4.500;2022-08-24T06:50:58;50.08;46.25;55.23;;
72858;Laerm;62742;52.136;4.500;2022-08-24T06:53:25;50.60;46.62;56.01;;
72858;Laerm;62742;52.136;4.500;2022-08-24T06:55:56;51.72;46.42;55.63;;
72858;Laerm;62742;52.136;4.500;2022-08-24T06:58:25;50.17;45.98;55.29;;
72858;Laerm;62742;52.136;4.500;2022-08-24T07:00:54;50.76;46.35;54.81;;
72858;Laerm;62742;52.136;4.500;2022-08-24T07:03:23;50.79;46.78;55.03;;
72858;Laerm;62742;52.136;4.500;2022-08-24T07:05:56;49.75;45.73;54.30;;
72858;Laerm;62742;52.136;4.500;2022-08-24T07:08:23;50.13;46.35;54.18;;
72858;Laerm;62742;52.136;4.500;2022-08-24T07:10:50;50.29;46.11;54.33;;
72858;Laerm;62742;52.136;4.500;2022-08-24T07:13:16;50.09;47.10;54.94;;
72858;Laerm;62742;52.136;4.500;2022-08-24T07:15:43;49.48;46.40;53.91;;
72858;Laerm;62742;52.136;4.500;2022-08-24T07:18:14;50.63;47.20;54.86;;
72858;Laerm;62742;52.136;4.500;2022-08-24T07:20:42;50.41;46.98;55.44;;
72858;Laerm;62742;52.136;4.500;2022-08-24T07:23:10;51.72;46.86;55.24;;
72858;Laerm;62742;52.136;4.500;2022-08-24T07:25:41;50.50;47.07;54.56;;
72858;Laerm;62742;52.136;4.500;2022-08-24T07:28:09;50.46;47.18;54.59;;
72858;Laerm;62742;52.136;4.500;2022-08-24T07:30:37;50.64;47.14;54.95;;
72858;Laerm;62742;52.136;4.500;2022-08-24T07:33:04;52.30;47.57;57.41;;
72858;Laerm;62742;52.136;4.500;2022-08-24T07:35:32;51.58;47.44;56.03;;
72858;Laerm;62742;52.136;4.500;2022-08-24T07:38:00;51.56;47.42;56.77;;
72858;Laerm;62742;52.136;4.500;2022-08-24T07:40:28;52.36;47.20;57.91;;
72858;Laerm;62742;52.136;4.500;2022-08-24T07:42:56;52.40;47.71;56.23;;
72858;Laerm;62742;52.136;4.500;2022-08-24T07:45:25;52.11;46.97;55.91;;
72858;Laerm;62742;52.136;4.500;2022-08-24T07:47:53;51.24;47.04;56.52;;
72858;Laerm;62742;52.136;4.500;2022-08-24T07:50:20;50.71;46.26;56.06;;
72858;Laerm;62742;52.136;4.500;2022-08-24T07:52:46;50.75;47.00;55.38;;
72858;Laerm;62742;52.136;4.500;2022-08-24T07:55:13;50.51;47.35;54.52;;
72858;Laerm;62742;52.136;4.500;2022-08-24T07:57:40;49.96;46.44;54.07;;
72858;Laerm;62742;52.136;4.500;2022-08-24T08:00:10;51.05;47.62;55.96;;
72858;Laerm;62742;52.136;4.500;2022-08-24T08:02:38;51.34;47.25;55.71;;
72858;Laerm;62742;52.136;4.500;2022-08-24T08:05:08;50.62;46.81;56.89;;
72858;Laerm;62742;52.136;4.500;2022-08-24T08:07:34;51.26;46.82;57.31;;
72858;Laerm;62742;52.136;4.500;2022-08-24T08:10:02;51.52;47.14;57.32;;
72858;Laerm;62742;52.136;4.500;2022-08-24T08:12:29;50.20;46.68;58.07;;
72858;Laerm;62742;52.136;4.500;2022-08-24T08:14:55;51.43;47.50;56.66;;
72858;Laerm;62742;52.136;4.500;2022-08-24T08:17:23;52.43;47.72;57.03;;
72858;Laerm;62742;52.136;4.500;2022-08-24T08:19:49;51.76;47.33;57.05;;
72858;Laerm;62742;52.136;4.500;2022-08-24T08:22:16;53.49;47.72;56.59;;
72858;Laerm;62742;52.136;4.500;2022-08-24T08:25:03;51.72;47.11;63.10;;
72858;Laerm;62742;52.136;4.500;2022-08-24T08:27:33;51.49;47.82;55.93;;
72858;Laerm;62742;52.136;4.500;2022-08-24T08:30:03;51.64;47.85;56.16;;
72858;Laerm;62742;52.136;4.500;2022-08-24T08:32:31;52.41;48.02;56.49;;
72858;Laerm;62742;52.136;4.500;2022-08-24T08:34:57;52.45;48.30;57.02;;
72858;Laerm;62742;52.136;4.500;2022-08-24T08:37:24;52.45;48.85;56.26;;
72858;Laerm;62742;52.136;4.500;2022-08-24T08:39:50;52.45;48.75;56.28;;
72858;Laerm;62742;52.136;4.500;2022-08-24T08:49:09;52.91;48.43;56.28;;
72858;Laerm;62742;52.136;4.500;2022-08-24T08:55:23;52.36;49.00;56.99;;
72858;Laerm;62742;52.136;4.500;2022-08-24T09:01:02;52.95;48.85;57.09;;
72858;Laerm;62742;52.136;4.500;2022-08-24T09:13:20;52.57;49.18;56.39;;
72858;Laerm;62742;52.136;4.500;2022-08-24T09:22:24;53.52;48.75;58.19;;
72858;Laerm;62742;52.136;4.500;2022-08-24T09:31:29;52.38;47.97;58.23;;
72858;Laerm;62742;52.136;4.500;2022-08-24T09:34:29;52.35;47.34;60.86;;
72858;Laerm;62742;52.136;4.500;2022-08-24T09:48:50;51.64;47.30;56.24;;
72858;Laerm;62742;52.136;4.500;2022-08-24T09:58:07;52.03;48.02;56.36;;
72858;Laerm;62742;52.136;4.500;2022-08-24T10:00:45;53.59;48.60;58.05;;
72858;Laerm;62742;52.136;4.500;2022-08-24T10:03:44;52.36;48.45;58.46;;
72858;Laerm;62742;52.136;4.500;2022-08-24T10:06:27;53.01;48.59;57.60;;
72858;Laerm;62742;52.136;4.500;2022-08-24T10:12:32;52.82;48.39;57.35;;
72858;Laerm;62742;52.136;4.500;2022-08-24T10:42:55;53.39;49.33;57.43;;
72858;Laerm;62742;52.136;4.500;2022-08-24T10:54:36;52.09;48.51;56.49;;
72858;Laerm;62742;52.136;4.500;2022-08-24T11:00:14;51.45;47.55;55.64;;
72858;Laerm;62742;52.136;4.500;2022-08-24T11:02:44;51.58;47.57;55.71;;
72858;Laerm;62742;52.136;4.500;2022-08-24T11:05:28;52.04;48.11;56.19;;
72858;Laerm;62742;52.136;4.500;2022-08-24T11:08:05;51.87;47.61;56.00;;
72858;Laerm;62742;52.136;4.500;2022-08-24T11:10:38;52.67;48.98;57.41;;
72858;Laerm;62742;52.136;4.500;2022-08-24T11:13:19;52.22;48.16;56.37;;
72858;Laerm;62742;52.136;4.500;2022-08-24T11:15:51;52.14;48.06;57.29;;
72858;Laerm;62742;52.136;4.500;2022-08-24T11:18:19;52.80;48.33;57.70;;
72858;Laerm;62742;52.136;4.500;2022-08-24T11:20:54;52.09;47.88;56.63;;
72858;Laerm;62742;52.136;4.500;2022-08-24T11:23:35;51.25;47.36;56.09;;
72858;Laerm;62742;52.136;4.500;2022-08-24T11:26:19;52.03;47.49;56.62;;
72858;Laerm;62742;52.136;4.500;2022-08-24T11:28:59;52.33;48.30;55.90;;
72858;Laerm;62742;52.136;4.500;2022-08-24T11:31:34;52.02;48.00;58.32;;
72858;Laerm;62742;52.136;4.500;2022-08-24T11:34:18;51.81;47.53;61.52;;
72858;Laerm;62742;52.136;4.500;2022-08-24T11:36:45;51.72;48.27;55.81;;
72858;Laerm;62742;52.136;4.500;2022-08-24T11:56:36;52.47;48.43;57.36;;
72858;Laerm;62742;52.136;4.500;2022-08-24T12:02:10;51.70;48.18;56.68;;
72858;Laerm;62742;52.136;4.500;2022-08-24T12:05:18;51.95;47.97;56.76;;
72858;Laerm;62742;52.136;4.500;2022-08-24T12:11:14;52.25;48.66;57.86;;
72858;Laerm;62742;52.136;4.500;2022-08-24T12:21:45;51.54;47.78;55.93;;
72858;Laerm;62742;52.136;4.500;2022-08-24T12:24:54;51.08;48.00;55.55;;
72858;Laerm;62742;52.136;4.500;2022-08-24T12:27:31;51.15;46.44;55.37;;
72858;Laerm;62742;52.136;4.500;2022-08-24T12:30:12;51.38;47.45;55.86;;
72858;Laerm;62742;52.136;4.500;2022-08-24T12:33:00;51.09;47.36;55.80;;
72858;Laerm;62742;52.136;4.500;2022-08-24T12:35:38;51.11;47.31;54.85;;
72858;Laerm;62742;52.136;4.500;2022-08-24T12:38:29;51.57;48.02;56.86;;
72858;Laerm;62742;52.136;4.500;2022-08-24T12:41:15;50.97;48.01;55.74;;
72858;Laerm;62742;52.136;4.500;2022-08-24T12:43:50;51.00;47.01;60.01;;
72858;Laerm;62742;52.136;4.500;2022-08-24T12:46:23;51.20;47.79;55.87;;
72858;Laerm;62742;52.136;4.500;2022-08-24T12:49:10;51.25;48.03;56.30;;
72858;Laerm;62742;52.136;4.500;2022-08-24T12:52:12;50.74;47.72;55.14;;
72858;Laerm;62742;52.136;4.500;2022-08-24T12:55:30;50.56;47.02;55.11;;
72858;Laerm;62742;52.136;4.500;2022-08-24T12:58:31;51.28;47.76;58.43;;
72858;Laerm;62742;52.136;4.500;2022-08-24T13:01:05;51.31;45.83;59.79;;
72858;Laerm;62742;52.136;4.500;2022-08-24T13:03:39;52.40;48.50;56.65;;
72858;Laerm;62742;52.136;4.500;2022-08-24T13:06:29;51.25;47.19;56.73;;
72858;Laerm;62742;52.136;4.500;2022-08-24T13:09:14;50.56;47.24;54.73;;
72858;Laerm;62742;52.136;4.500;2022-08-24T13:11:42;50.24;46.58;54.38;;
72858;Laerm;62742;52.136;4.500;2022-08-24T13:14:26;50.56;46.75;54.45;;
72858;Laerm;62742;52.136;4.500;2022-08-24T13:22:35;51.31;46.94;56.76;;
72858;Laerm;62742;52.136;4.500;2022-08-24T13:25:25;50.91;46.62;55.76;;
72858;Laerm;62742;52.136;4.500;2022-08-24T13:28:26;51.55;46.95;56.33;;
72858;Laerm;62742;52.136;4.500;2022-08-24T13:31:26;51.27;46.81;55.51;;
72858;Laerm;62742;52.136;4.500;2022-08-24T13:40:13;49.53;45.64;54.39;;
72858;Laerm;62742;52.136;4.500;2022-08-24T13:43:08;50.14;45.94;55.25;;
72858;Laerm;62742;52.136;4.500;2022-08-24T13:46:07;50.79;47.00;55.19;;
72858;Laerm;62742;52.136;4.500;2022-08-24T13:48:59;50.61;46.94;54.18;;
72858;Laerm;62742;52.136;4.500;2022-08-24T13:51:47;50.68;46.42;55.14;;
72858;Laerm;62742;52.136;4.500;2022-08-24T13:54:22;50.16;47.33;55.32;;
72858;Laerm;62742;52.136;4.500;2022-08-24T14:05:57;50.66;46.91;54.06;;
72858;Laerm;62742;52.136;4.500;2022-08-24T14:20:53;51.32;47.69;55.38;;
72858;Laerm;62742;52.136;4.500;2022-08-24T14:24:06;50.46;46.68;54.77;;
72858;Laerm;62742;52.136;4.500;2022-08-24T14:34:49;50.24;46.24;54.69;;
72858;Laerm;62742;52.136;4.500;2022-08-24T14:37:29;50.76;47.28;54.99;;
72858;Laerm;62742;52.136;4.500;2022-08-24T14:43:00;51.09;47.10;57.42;;
72858;Laerm;62742;52.136;4.500;2022-08-24T15:04:26;50.94;47.56;55.92;;
72858;Laerm;62742;52.136;4.500;2022-08-24T15:07:28;51.08;46.89;56.72;;
72858;Laerm;62742;52.136;4.500;2022-08-24T15:09:57;51.34;47.30;56.04;;
72858;Laerm;62742;52.136;4.500;2022-08-24T15:12:52;51.41;47.50;56.42;;
72858;Laerm;62742;52.136;4.500;2022-08-24T15:15:40;51.32;47.48;56.16;;
72858;Laerm;62742;52.136;4.500;2022-08-24T15:20:59;50.77;47.21;54.71;;
72858;Laerm;62742;52.136;4.500;2022-08-24T15:26:17;50.28;47.02;54.58;;
72858;Laerm;62742;52.136;4.500;2022-08-24T15:28:52;50.45;47.34;55.74;;
72858;Laerm;62742;52.136;4.500;2022-08-24T15:31:25;50.73;47.11;55.40;;
72858;Laerm;62742;52.136;4.500;2022-08-24T15:34:02;50.40;46.96;54.44;;
72858;Laerm;62742;52.136;4.500;2022-08-24T15:36:32;50.63;47.50;54.50;;
72858;Laerm;62742;52.136;4.500;2022-08-24T15:39:03;51.16;47.37;54.52;;
72858;Laerm;62742;52.136;4.500;2022-08-24T15:41:40;50.75;47.41;53.96;;
72858;Laerm;62742;52.136;4.500;2022-08-24T15:44:24;50.90;47.02;54.96;;
72858;Laerm;62742;52.136;4.500;2022-08-24T15:46:58;50.90;47.46;54.89;;
72858;Laerm;62742;52.136;4.500;2022-08-24T15:49:36;50.47;47.23;54.34;;
72858;Laerm;62742;52.136;4.500;2022-08-24T15:55:42;50.97;47.67;55.55;;
72858;Laerm;62742;52.136;4.500;2022-08-24T15:58:32;50.56;47.28;54.97;;
72858;Laerm;62742;52.136;4.500;2022-08-24T16:03:58;51.14;46.65;56.22;;
72858;Laerm;62742;52.136;4.500;2022-08-24T16:06:38;50.86;47.25;55.24;;
72858;Laerm;62742;52.136;4.500;2022-08-24T16:12:03;51.03;47.65;55.66;;
72858;Laerm;62742;52.136;4.500;2022-08-24T16:14:46;50.88;47.88;54.95;;
72858;Laerm;62742;52.136;4.500;2022-08-24T16:17:43;50.23;47.14;54.43;;
72858;Laerm;62742;52.136;4.500;2022-08-24T16:20:30;50.51;46.78;54.47;;
72858;Laerm;62742;52.136;4.500;2022-08-24T16:23:05;50.10;47.12;53.89;;
72858;Laerm;62742;52.136;4.500;2022-08-24T16:25:43;50.52;46.90;54.98;;
72858;Laerm;62742;52.136;4.500;2022-08-24T16:28:33;50.50;47.28;54.78;;
72858;Laerm;62742;52.136;4.500;2022-08-24T16:31:04;50.62;47.00;54.51;;
72858;Laerm;62742;52.136;4.500;2022-08-24T16:36:04;51.12;47.29;54.69;;
72858;Laerm;62742;52.136;4.500;2022-08-24T16:38:33;50.42;47.33;54.19;;
72858;Laerm;62742;52.136;4.500;2022-08-24T16:41:07;50.31;46.98;54.86;;
72858;Laerm;62742;52.136;4.500;2022-08-24T16:43:37;50.46;47.09;55.00;;
72858;Laerm;62742;52.136;4.500;2022-08-24T16:46:08;51.17;47.22;54.56;;
72858;Laerm;62742;52.136;4.500;2022-08-24T16:48:36;50.46;47.17;56.24;;
72858;Laerm;62742;52.136;4.500;2022-08-24T16:51:02;50.21;46.88;53.51;;
72858;Laerm;62742;52.136;4.500;2022-08-24T16:53:29;50.03;47.07;54.04;;
72858;Laerm;62742;52.136;4.500;2022-08-24T16:55:57;51.01;47.50;54.75;;
72858;Laerm;62742;52.136;4.500;2022-08-24T16:58:31;50.61;47.06;55.74;;
72858;Laerm;62742;52.136;4.500;2022-08-24T17:00:59;51.12;47.33;55.40;;
72858;Laerm;62742;52.136;4.500;2022-08-24T17:03:27;51.13;47.36;55.61;;
72858;Laerm;62742;52.136;4.500;2022-08-24T17:05:55;50.83;47.69;54.46;;
72858;Laerm;62742;52.136;4.500;2022-08-24T17:08:23;50.86;47.64;54.42;;
72858;Laerm;62742;52.136;4.500;2022-08-24T17:10:50;50.15;47.20;54.49;;
72858;Laerm;62742;52.136;4.500;2022-08-24T17:13:17;50.13;47.31;53.70;;
72858;Laerm;62742;52.136;4.500;2022-08-24T17:15:45;50.34;47.12;54.21;;
72858;Laerm;62742;52.136;4.500;2022-08-24T17:18:13;50.90;47.62;54.50;;
72858;Laerm;62742;52.136;4.500;2022-08-24T17:20:40;50.90;47.24;55.25;;
72858;Laerm;62742;52.136;4.500;2022-08-24T17:23:06;50.00;46.50;54.08;;
72858;Laerm;62742;52.136;4.500;2022-08-24T17:25:33;50.32;46.87;58.61;;
72858;Laerm;62742;52.136;4.500;2022-08-24T17:28:03;49.92;46.77;54.59;;
72858;Laerm;62742;52.136;4.500;2022-08-24T17:30:29;50.56;46.87;54.65;;
72858;Laerm;62742;52.136;4.500;2022-08-24T17:32:56;49.93;46.96;54.22;;
72858;Laerm;62742;52.136;4.500;2022-08-24T17:35:23;50.04;47.03;57.70;;
72858;Laerm;62742;52.136;4.500;2022-08-24T17:37:51;50.74;46.77;56.09;;
72858;Laerm;62742;52.136;4.500;2022-08-24T17:40:23;50.43;47.08;54.66;;
72858;Laerm;62742;52.136;4.500;2022-08-24T17:42:51;49.65;46.95;53.31;;
72858;Laerm;62742;52.136;4.500;2022-08-24T17:45:19;49.99;47.16;53.52;;
72858;Laerm;62742;52.136;4.500;2022-08-24T17:47:49;50.70;47.14;55.39;;